Terminal Aerodrome Forecast
Issued by NWS

Home | Current Version | Previous Version | Text Only | Print | Product List | Glossary On
Versions: 1 2 3 4 5 6 7 8 9 10 11 12 13 14 15 16 17 18 19 20 21 22 23 24 25
000
FTUS41 KGYX 230158 AAA
TAFAUG
TAF AMD
KAUG 230158Z 2302/2324 03005KT P6SM -SHSN SCT009 OVC015
     FM231200 05005KT 4SM -SHRASN OVC008
     FM231700 06004KT 3SM -RA OVC007=

USA.gov is the U.S. government's official web portal to all federal, state and local government web resources and services.